Aérodrome :
LOGIN :

S'inscrire | Disclaimer

   EN    FR    IT 

 










Légende :    VFR   VFR Marginal   IFR   IFR Intensif   IFR Très Intensif
Visi : 
Plafond : 
>= 8 km
>= 3000ft
5 à 8 km
1000 à 3000 ft
1500m à 5 km
500 à 1000 ft
800 à 1500m
200 à 500 ft
< 800m
< 200 ft
Symboles :   Orages  Brouillard  Fortes neiges  Fortes précipitations  Vent > 20 kt
SIGMETs :   Divers  Orages  Givrage  Turbulence  Onde Orograph.  Cendres Volcan.






- Altitude de l'aérodrome : 1768 ft


LEHC - Huesca Pirineos

DERNIER METAR :
  • 230300Z AUTO 07012KT 040V100 CAVOK 13/07 Q1002

METARs EXPIRÉS :
  • 230230Z AUTO 04008KT 010V070 CAVOK 13/08 Q1003
  • 230200Z AUTO 05015G25KT 010V080 9999 FEW070 12/07 Q1003
  • 230130Z AUTO 04020KT 020V080 9999 -RA NSC 12/08 Q1004
  • 230100Z AUTO 04020KT 360V070 9999 -RA OVC070 12/10 Q1006 RERA
  • 230030Z AUTO 05015G26KT 020V080 9000 RA OVC067 12/10 Q1007

TAF TAF LEHC
Valide du 23 à 03h jusqu'au 24 à 03h UTC


230200Z 2303/2403 13010KT 9999 SCT030 TX15/2314Z TN10/2306Z
TEMPO 2303/2305 2000 RA BR BKN010
PROB30
TEMPO 2303/2308 0100 BCFG VV001
TEMPO 2308/2322 2000 RA BKN010
BECMG 2316/2318 VRB04KT 3000 BR BKN010



MET'MAP, la Météo Aéronautique d'un coup d'oeil ! - Copyright ORBIFLY Décembre 2007 - Disclaimer

ORBIFLY MET'MAP TEAM :

Programmation & Développement : Alexandra Zaïnal
Conception & Développement : Baudouin d'Aumeries
Co-Programmation & Développement : Marc-Olivier Méhu
Soutien technique & logistique : Manuel Goepfert

Contact : metmap@orbifly.com




SOURCES & CREDITS :

   NOAA